Time;durP1;ratioP1;P1;durP2;ratioP2;P2;SDS_P1;SDS_P2;PMS_P1;PMS_P2;Temp;Humidity;BMP_temperature;BMP_pressure;BME280_temperature;BME280_humidity;BME280_pressure;Samples;Min_cycle;Max_cycle;Signal;HPM_P1;HPM_P2
2024/01/18 00:00:13;;;;;;;45.60;25.00;;;;;;;-3.29;100.00;101096.80;105776;1254;71379;-80
2024/01/18 00:02:40;;;;;;;38.90;23.40;;;;;;;-3.29;100.00;101094.41;105863;1258;60546;-79
2024/01/18 00:05:08;;;;;;;38.30;22.20;;;;;;;-3.28;100.00;101088.44;105963;1251;60403;-80
2024/01/18 00:07:36;;;;;;;35.80;22.20;;;;;;;-3.25;100.00;101082.30;105955;1257;73733;-78
2024/01/18 00:10:04;;;;;;;38.60;22.50;;;;;;;-3.22;100.00;101079.05;105891;1251;62654;-79
2024/01/18 00:12:31;;;;;;;40.20;21.90;;;;;;;-3.19;100.00;101076.15;105875;1254;71102;-78
2024/01/18 00:14:59;;;;;;;36.60;22.80;;;;;;;-3.15;100.00;101072.74;105780;1256;61708;-80
2024/01/18 00:17:27;;;;;;;36.90;22.70;;;;;;;-3.11;100.00;101073.97;105826;1254;60338;-79
2024/01/18 00:19:55;;;;;;;33.90;22.20;;;;;;;-3.08;100.00;101071.41;105814;1256;73817;-78
2024/01/18 00:22:22;;;;;;;34.30;22.00;;;;;;;-3.04;100.00;101075.02;105866;1256;62293;-79
2024/01/18 00:24:50;;;;;;;37.80;23.00;;;;;;;-2.99;100.00;101073.66;105892;1256;71588;-78
2024/01/18 00:27:18;;;;;;;41.60;24.60;;;;;;;-2.93;100.00;101069.23;105924;1257;60715;-78
2024/01/18 00:29:45;;;;;;;47.30;26.50;;;;;;;-2.86;100.00;101065.14;105812;1251;60543;-78
2024/01/18 00:32:13;;;;;;;41.70;24.30;;;;;;;-2.78;100.00;101058.83;105776;1254;72650;-78
2024/01/18 00:34:40;;;;;;;39.80;24.20;;;;;;;-2.72;100.00;101054.39;105948;1255;61674;-80
2024/01/18 00:37:08;;;;;;;51.60;25.00;;;;;;;-2.67;100.00;101044.13;105910;1257;71856;-79
2024/01/18 00:39:42;;;;;;;42.70;24.30;;;;;;;-2.62;100.00;101043.45;105921;1254;61679;-80
2024/01/18 00:42:10;;;;;;;;;;;;;;;-2.56;100.00;101041.73;106050;1251;60543;-79
2024/01/18 00:44:37;;;;;;;51.10;27.40;;;;;;;-2.52;100.00;101033.70;105872;1251;73826;-81
2024/01/18 00:47:05;;;;;;;40.70;23.20;;;;;;;-2.46;100.00;101028.40;105849;1257;63544;-78
2024/01/18 00:49:33;;;;;;;44.90;25.70;;;;;;;-2.41;100.00;101022.73;105957;1251;70897;-78
2024/01/18 00:52:02;;;;;;;41.90;24.30;;;;;;;-2.35;100.00;101010.92;106063;1252;60466;-77
2024/01/18 00:54:30;;;;;;;45.10;25.60;;;;;;;-2.28;100.00;101011.27;105968;1254;60357;-80
2024/01/18 00:56:57;;;;;;;36.90;23.40;;;;;;;-2.22;100.00;101003.55;105768;1257;73855;-80
2024/01/18 00:59:25;;;;;;;41.20;23.70;;;;;;;-2.15;100.00;100997.02;105840;1251;63683;-79
2024/01/18 01:01:52;;;;;;;39.70;22.00;;;;;;;-2.09;100.00;100991.20;105854;1257;72693;-79
2024/01/18 01:04:20;;;;;;;35.20;20.70;;;;;;;-2.04;100.00;100984.34;105818;1254;60764;-78
2024/01/18 01:06:48;;;;;;;26.90;18.20;;;;;;;-2.00;100.00;100975.77;105869;1251;60347;-77
2024/01/18 01:09:15;;;;;;;27.00;18.20;;;;;;;-1.95;100.00;100980.02;105916;1251;72620;-78
2024/01/18 01:11:43;;;;;;;27.90;17.70;;;;;;;-1.90;100.00;100976.94;105735;1257;62471;-79
2024/01/18 01:14:10;;;;;;;33.20;19.30;;;;;;;-1.85;100.00;100963.21;105813;1254;72745;-79
2024/01/18 01:16:39;;;;;;;30.40;19.30;;;;;;;-1.79;100.00;100958.90;105880;1252;60488;-80
2024/01/18 01:19:06;;;;;;;28.50;17.70;;;;;;;-1.73;100.00;100958.02;105716;1251;60501;-79
2024/01/18 01:21:34;;;;;;;24.80;17.60;;;;;;;-1.68;100.00;100949.59;105845;1254;72085;-81
2024/01/18 01:24:02;;;;;;;25.20;16.10;;;;;;;-1.61;100.00;100947.34;105969;1251;62221;-79
2024/01/18 01:26:30;;;;;;;24.70;16.60;;;;;;;-1.55;100.00;100940.45;105938;1257;72711;-79
2024/01/18 06:31:47;;;;;;;23.20;13.70;;;;;;;2.41;100.00;100422.17;104514;1289;613415;-74
2024/01/18 06:34:14;;;;;;;25.10;14.00;;;;;;;2.44;100.00;100416.23;105542;1264;60247;-77
2024/01/18 06:36:41;;;;;;;22.90;13.40;;;;;;;2.47;100.00;100412.85;105487;1264;60341;-77
2024/01/18 06:39:08;;;;;;;19.80;12.90;;;;;;;2.49;100.00;100414.02;105090;1264;71608;-77
2024/01/18 06:41:35;;;;;;;23.70;13.60;;;;;;;2.52;100.00;100415.46;105362;1261;61575;-78
2024/01/18 06:44:03;;;;;;;20.00;14.80;;;;;;;2.54;100.00;100410.93;105088;1263;359308;-79
2024/01/18 06:46:31;;;;;;;22.80;13.70;;;;;;;2.57;100.00;100411.88;105368;1265;61093;-78
2024/01/18 06:48:58;;;;;;;21.00;14.70;;;;;;;2.60;100.00;100410.75;105644;1263;59323;-79
2024/01/18 06:51:24;;;;;;;22.10;14.30;;;;;;;2.63;100.00;100404.94;105403;1258;70827;-76
2024/01/18 06:53:52;;;;;;;21.30;11.70;;;;;;;2.68;100.00;100399.44;105546;1258;63703;-79
2024/01/18 06:56:19;;;;;;;20.10;13.10;;;;;;;2.72;100.00;100396.23;105485;1257;72460;-78
2024/01/18 06:58:46;;;;;;;22.00;14.60;;;;;;;2.76;100.00;100396.63;105324;1258;60200;-76
2024/01/18 07:01:12;;;;;;;23.60;17.50;;;;;;;2.80;100.00;100385.63;105445;1257;59551;-76
2024/01/18 07:03:41;;;;;;;19.20;13.80;;;;;;;2.85;100.00;100393.22;105542;1263;72202;-78
2024/01/18 07:06:09;;;;;;;18.80;15.40;;;;;;;2.89;100.00;100395.15;105492;1257;63726;-77
2024/01/18 07:08:37;;;;;;;20.00;14.80;;;;;;;2.96;100.00;100392.70;105426;1258;72511;-75
2024/01/18 07:11:04;;;;;;;23.50;15.00;;;;;;;3.02;100.00;100390.61;105449;1263;61423;-77
2024/01/18 07:13:31;;;;;;;21.90;13.80;;;;;;;3.08;100.00;100389.73;105492;1258;59765;-81
2024/01/18 07:15:58;;;;;;;18.70;14.10;;;;;;;3.15;100.00;100397.61;105431;1257;71396;-79
2024/01/18 07:18:26;;;;;;;21.70;13.40;;;;;;;3.22;100.00;100393.94;105508;1261;63728;-77
2024/01/18 07:20:53;;;;;;;20.30;14.20;;;;;;;3.29;100.00;100389.38;105548;1258;72743;-77
2024/01/18 07:23:21;;;;;;;26.80;14.80;;;;;;;3.38;100.00;100391.48;105669;1259;59681;-77
2024/01/18 07:25:48;;;;;;;25.50;14.60;;;;;;;3.47;100.00;100388.77;105464;1257;60273;-78
2024/01/18 07:28:14;;;;;;;21.10;13.50;;;;;;;3.54;100.00;100384.38;105306;1258;73033;-76
2024/01/18 07:30:42;;;;;;;22.80;14.90;;;;;;;3.61;100.00;100385.67;105327;1262;63734;-77
2024/01/18 07:33:09;;;;;;;26.20;13.50;;;;;;;3.67;100.00;100384.95;105380;1258;72575;-80
2024/01/18 07:35:37;;;;;;;21.80;13.60;;;;;;;3.73;100.00;100391.31;106664;1253;59880;-77
2024/01/18 07:38:04;;;;;;;29.10;14.80;;;;;;;3.77;100.00;100393.41;105759;1254;60082;-78
2024/01/18 07:40:31;;;;;;;27.60;14.40;;;;;;;3.80;100.00;100385.01;105889;1257;73086;-77
2024/01/18 07:42:58;;;;;;;20.60;13.00;;;;;;;3.83;100.00;100381.45;105735;1257;62421;-79
2024/01/18 07:45:25;;;;;;;22.60;13.40;;;;;;;3.85;100.00;100378.96;105838;1255;71260;-78
2024/01/18 07:47:53;;;;;;;27.10;16.10;;;;;;;3.88;100.00;100383.52;105773;1254;59755;-78
2024/01/18 07:50:20;;;;;;;23.30;15.30;;;;;;;3.93;100.00;100375.73;105815;1257;60800;-78
2024/01/18 07:53:03;;;;;;;29.90;17.40;;;;;;;3.99;100.00;100376.39;105839;1254;71800;-76
2024/01/18 07:55:30;;;;;;;21.80;15.10;;;;;;;4.03;100.00;100366.00;105864;1257;64883;-77
2024/01/18 07:57:57;;;;;;;22.50;13.90;;;;;;;4.08;100.00;100360.64;105903;1257;72931;-80
2024/01/18 08:00:24;;;;;;;21.90;12.70;;;;;;;4.13;100.00;100356.81;105937;1254;60862;-78
2024/01/18 08:02:51;;;;;;;27.70;14.20;;;;;;;4.18;100.00;100351.46;105931;1254;60312;-79
2024/01/18 08:05:18;;;;;;;20.40;11.80;;;;;;;4.21;100.00;100346.14;106016;1253;73026;-81
2024/01/18 08:07:45;;;;;;;17.30;12.10;;;;;;;4.24;100.00;100345.35;105955;1256;63098;-79
2024/01/18 08:10:12;;;;;;;20.60;11.50;;;;;;;4.28;100.00;100341.55;105950;1257;71017;-80
2024/01/18 08:12:41;;;;;;;16.90;10.50;;;;;;;4.33;100.00;100342.55;105971;1256;62894;-79
2024/01/18 08:15:09;;;;;;;22.70;12.00;;;;;;;4.38;100.00;100339.11;105633;1253;60460;-80
2024/01/18 08:17:35;;;;;;;18.40;9.50;;;;;;;4.41;100.00;100339.14;106026;1254;72822;-77
2024/01/18 08:20:12;;;;;;;16.50;10.30;;;;;;;4.45;100.00;100338.63;105949;1254;62298;-78
2024/01/18 08:22:41;;;;;;;15.70;8.20;;;;;;;4.49;100.00;100336.42;105827;1255;72893;-77
2024/01/18 08:25:08;;;;;;;14.30;8.30;;;;;;;4.50;100.00;100322.16;105752;1257;61031;-75
2024/01/18 08:27:35;;;;;;;18.30;8.90;;;;;;;4.53;100.00;100315.48;105903;1254;60298;-78
2024/01/18 08:30:03;;;;;;;14.00;9.00;;;;;;;4.55;100.00;100313.15;105715;1254;73088;-79
2024/01/18 08:32:34;;;;;;;12.20;8.30;;;;;;;4.59;100.00;100312.15;105832;1258;63959;-77
2024/01/18 08:35:03;;;;;;;12.00;8.60;;;;;;;4.67;100.00;100305.41;105788;1256;72664;-78
2024/01/18 08:37:30;;;;;;;12.20;7.10;;;;;;;4.77;100.00;100305.15;105655;1259;60954;-76
2024/01/18 08:39:57;;;;;;;10.30;6.30;;;;;;;4.88;100.00;100293.61;105781;1257;59614;-78
2024/01/18 08:42:24;;;;;;;13.20;7.30;;;;;;;4.98;100.00;100281.41;105840;1253;73011;-78
2024/01/18 08:44:51;;;;;;;9.90;5.50;;;;;;;5.08;100.00;100282.20;105854;1257;61431;-78
2024/01/18 08:47:19;;;;;;;11.00;6.90;;;;;;;5.19;100.00;100283.65;105935;1254;72687;-81
2024/01/18 08:49:47;;;;;;;9.60;5.50;;;;;;;5.26;100.00;100276.43;105974;1253;59691;-80
2024/01/18 08:52:14;;;;;;;10.00;6.40;;;;;;;5.33;100.00;100271.59;105950;1257;59618;-78
2024/01/18 08:54:42;;;;;;;12.50;6.40;;;;;;;5.40;100.00;100264.20;105905;1257;74101;-78
2024/01/18 08:57:09;;;;;;;16.70;7.50;;;;;;;5.47;100.00;100258.15;105762;1254;61943;-76
2024/01/18 08:59:36;;;;;;;11.40;6.10;;;;;;;5.53;100.00;100249.40;105785;1257;71409;-78
2024/01/18 09:02:03;;;;;;;13.10;6.10;;;;;;;5.56;100.00;100244.23;105969;1254;61036;-77
2024/01/18 09:04:44;;;;;;;9.10;5.90;;;;;;;5.58;100.00;100243.79;105942;1254;60329;-76
2024/01/18 09:07:14;;;;;;;10.00;5.80;;;;;;;5.58;100.00;100256.27;105780;1253;73212;-79
2024/01/18 09:09:41;;;;;;;9.00;5.60;;;;;;;5.56;100.00;100244.05;105793;1254;63406;-81
2024/01/18 09:12:09;;;;;;;11.00;5.40;;;;;;;5.56;100.00;100236.94;105916;1257;72436;-79
2024/01/18 09:14:35;;;;;;;10.80;6.20;;;;;;;5.56;100.00;100230.90;105856;1257;61198;-80
2024/01/18 09:17:02;;;;;;;13.50;6.20;;;;;;;5.55;100.00;100222.58;105948;1257;59628;-77
2024/01/18 09:19:32;;;;;;;14.30;6.10;;;;;;;5.55;100.00;100215.30;105839;1254;73208;-79
2024/01/18 09:21:59;;;;;;;11.10;5.30;;;;;;;5.56;100.00;100207.45;105926;1255;65027;-80
2024/01/18 09:24:26;;;;;;;14.70;7.10;;;;;;;5.57;100.00;100207.61;105866;1253;73876;-80
2024/01/18 09:26:53;;;;;;;11.40;6.00;;;;;;;5.58;100.00;100203.72;105893;1254;61320;-78
2024/01/18 09:29:20;;;;;;;12.90;6.80;;;;;;;5.58;100.00;100194.54;105741;1252;59787;-77
2024/01/18 09:31:47;;;;;;;8.00;5.20;;;;;;;5.59;100.00;100183.73;105870;1254;72907;-77
2024/01/18 09:34:15;;;;;;;9.30;5.20;;;;;;;5.63;100.00;100183.38;105918;1254;64255;-78
2024/01/18 09:36:41;;;;;;;13.20;5.50;;;;;;;5.66;100.00;100184.30;105857;1255;72348;-80
2024/01/18 09:39:15;;;;;;;11.70;5.60;;;;;;;5.69;100.00;100176.02;105953;1254;61031;-78
2024/01/18 09:41:43;;;;;;;7.20;4.40;;;;;;;5.69;100.00;100170.09;105900;1257;60221;-79
2024/01/18 09:44:11;;;;;;;8.10;4.80;;;;;;;5.68;100.00;100162.69;106056;1254;73930;-76
2024/01/18 09:46:39;;;;;;;12.10;5.00;;;;;;;5.69;100.00;100162.33;105837;1257;64306;-77
2024/01/18 09:49:09;;;;;;;10.00;5.50;;;;;;;5.70;100.00;100151.14;106519;1254;72288;-76
2024/01/18 09:51:36;;;;;;;8.40;5.10;;;;;;;5.74;100.00;100148.73;106865;1252;61037;-75
2024/01/18 09:54:03;;;;;;;16.50;7.50;;;;;;;5.79;100.00;100151.77;107647;1252;61573;-74
2024/01/18 09:56:36;;;;;;;11.90;5.00;;;;;;;5.85;100.00;100148.19;106348;1256;74041;-79
2024/01/18 09:59:04;;;;;;;9.90;6.10;;;;;;;5.92;100.00;100142.65;106263;1254;62979;-80
2024/01/18 10:01:30;;;;;;;6.90;4.40;;;;;;;5.99;100.00;100134.85;105880;1257;71662;-76
2024/01/18 10:03:57;;;;;;;8.60;5.30;;;;;;;6.07;100.00;100132.06;105909;1257;60176;-77
2024/01/18 10:06:24;;;;;;;11.30;5.00;;;;;;;6.17;100.00;100130.89;106582;1257;59628;-78
2024/01/18 10:08:52;;;;;;;10.50;5.40;;;;;;;6.26;100.00;100120.73;105871;1254;73101;-77
2024/01/18 10:11:19;;;;;;;7.40;4.50;;;;;;;6.35;100.00;100123.89;106742;1256;65234;-78
2024/01/18 10:13:54;;;;;;;11.90;5.30;;;;;;;6.46;100.00;100114.86;106555;1255;72460;-78
2024/01/18 10:16:32;;;;;;;;;;;;;;;6.55;100.00;100102.58;106890;1254;60949;-78
2024/01/18 10:19:06;;;;;;;16.10;6.10;;;;;;;6.59;100.00;100092.09;108204;1254;58791;-75
2024/01/18 10:21:34;;;;;;;13.10;5.40;;;;;;;6.60;100.00;100092.91;108493;1253;72921;-77
2024/01/18 10:24:03;;;;;;;10.10;5.60;;;;;;;6.58;100.00;100082.42;107158;1254;64056;-76
2024/01/18 10:26:31;;;;;;;12.50;6.40;;;;;;;6.55;100.00;100085.88;106197;1254;73764;-80
2024/01/18 10:28:58;;;;;;;7.00;4.70;;;;;;;6.54;100.00;100074.83;105904;1253;61143;-79
2024/01/18 10:31:28;;;;;;;12.90;5.30;;;;;;;6.50;100.00;100066.02;105917;1252;61413;-77
2024/01/18 10:33:55;;;;;;;7.40;5.20;;;;;;;6.44;100.00;100061.82;105945;1254;73679;-78
2024/01/18 10:36:23;;;;;;;10.30;5.40;;;;;;;6.38;100.00;100069.38;105858;1254;63998;-75
2024/01/18 10:38:49;;;;;;;9.70;4.70;;;;;;;6.33;100.00;100069.13;105924;1252;71741;-77
2024/01/18 10:41:19;;;;;;;7.80;5.00;;;;;;;6.32;100.00;100065.55;105842;1257;61194;-77
2024/01/18 10:43:49;;;;;;;10.60;5.60;;;;;;;6.29;100.00;100057.72;105898;1255;60806;-78
2024/01/18 10:46:19;;;;;;;8.90;4.80;;;;;;;6.27;100.00;100054.89;105683;1254;73514;-80
2024/01/18 10:48:46;;;;;;;7.90;4.60;;;;;;;6.23;100.00;100049.52;105928;1257;63669;-79
2024/01/18 10:51:13;;;;;;;9.40;5.20;;;;;;;6.22;100.00;100048.70;105869;1254;72693;-79
2024/01/18 10:53:41;;;;;;;10.60;5.90;;;;;;;6.23;100.00;100049.33;105890;1252;61170;-78
2024/01/18 10:56:08;;;;;;;12.00;5.80;;;;;;;6.25;100.00;100042.49;105870;1257;60431;-80
2024/01/18 10:58:35;;;;;;;14.50;6.20;;;;;;;6.24;100.00;100039.73;105913;1255;72845;-76
2024/01/18 11:01:03;;;;;;;10.40;5.80;;;;;;;6.23;100.00;100031.27;106011;1254;62822;-78
2024/01/18 11:03:30;;;;;;;12.70;6.00;;;;;;;6.21;100.00;100026.16;105902;1258;72634;-78
2024/01/18 11:05:59;;;;;;;10.60;6.10;;;;;;;6.20;100.00;100020.99;106004;1257;61204;-79
2024/01/18 11:08:26;;;;;;;12.30;7.00;;;;;;;6.20;100.00;100016.50;106064;1252;60376;-78
2024/01/18 11:10:52;;;;;;;17.40;8.50;;;;;;;6.19;100.00;100016.53;106016;1254;74968;-79
2024/01/18 11:13:19;;;;;;;15.30;7.10;;;;;;;6.19;100.00;100014.46;105979;1254;63563;-80
2024/01/18 11:15:47;;;;;;;12.60;6.90;;;;;;;6.19;100.00;100014.65;106063;1254;71711;-76
2024/01/18 11:18:14;;;;;;;12.50;6.80;;;;;;;6.18;100.00;100015.92;106242;1252;60539;-78
2024/01/18 11:21:06;;;;;;;13.60;7.40;;;;;;;6.16;100.00;100009.80;106097;1251;61012;-80
2024/01/18 11:23:38;;;;;;;13.70;7.90;;;;;;;6.13;100.00;100001.59;106054;1251;73554;-77
2024/01/18 11:26:07;;;;;;;12.40;7.60;;;;;;;6.12;100.00;99999.59;106063;1254;64363;-80
2024/01/18 11:28:35;;;;;;;11.60;6.30;;;;;;;6.12;100.00;99993.67;106233;1252;71465;-79
2024/01/18 11:31:02;;;;;;;17.80;7.60;;;;;;;6.13;100.00;99985.81;106204;1254;60431;-77
2024/01/18 11:33:29;;;;;;;11.50;6.60;;;;;;;6.17;100.00;99978.50;106322;1253;61305;-80
2024/01/18 11:35:59;;;;;;;18.70;7.30;;;;;;;6.22;100.00;99979.93;105967;1257;75092;-78
2024/01/18 11:38:32;;;;;;;13.90;6.70;;;;;;;6.27;100.00;99974.16;106184;1253;64122;-81
2024/01/18 11:41:09;;;;;;;13.30;6.70;;;;;;;6.30;100.00;99974.70;105977;1251;73747;-80
2024/01/18 11:43:54;;;;;;;16.10;7.80;;;;;;;6.32;100.00;99972.84;106191;1253;61261;-78
2024/01/18 11:46:38;;;;;;;13.30;7.80;;;;;;;6.34;100.00;99976.04;106181;1253;62030;-78
2024/01/18 11:49:05;;;;;;;16.30;8.50;;;;;;;6.34;100.00;99970.83;106166;1251;75025;-80
2024/01/18 11:51:33;;;;;;;19.70;10.30;;;;;;;6.31;100.00;99974.08;106201;1253;63712;-81
2024/01/18 11:54:01;;;;;;;14.70;7.40;;;;;;;6.30;100.00;99974.15;106228;1253;72740;-79
2024/01/18 11:56:29;;;;;;;13.40;8.20;;;;;;;6.27;100.00;99973.97;106239;1254;61206;-80
2024/01/18 11:58:59;;;;;;;16.60;8.70;;;;;;;6.25;100.00;99965.25;106135;1251;61226;-79
2024/01/18 12:01:30;;;;;;;14.00;7.70;;;;;;;6.23;100.00;99961.17;106161;1254;74907;-77
2024/01/18 12:03:57;;;;;;;11.80;8.40;;;;;;;6.21;100.00;99952.59;106170;1253;65327;-80
2024/01/18 12:06:28;;;;;;;12.70;5.90;;;;;;;6.19;100.00;99943.82;105875;1257;73561;-79
2024/01/18 12:08:54;;;;;;;11.80;6.40;;;;;;;6.17;100.00;99940.80;106224;1254;62164;-78
2024/01/18 12:11:21;;;;;;;11.10;6.10;;;;;;;6.16;100.00;99940.01;106192;1251;60415;-80
2024/01/18 12:13:48;;;;;;;10.20;6.10;;;;;;;6.15;100.00;99942.98;106184;1254;73669;-79
2024/01/18 12:16:19;;;;;;;15.00;6.60;;;;;;;6.15;100.00;99946.48;105977;1257;64447;-78
2024/01/18 12:18:45;;;;;;;14.10;7.20;;;;;;;6.14;100.00;99949.64;106202;1254;73681;-81
2024/01/18 12:21:16;;;;;;;10.60;5.80;;;;;;;6.14;100.00;99946.00;106103;1254;60479;-78
2024/01/18 12:23:45;;;;;;;12.30;6.40;;;;;;;6.15;100.00;99945.63;106252;1252;60326;-79
2024/01/18 12:26:12;;;;;;;18.60;6.10;;;;;;;6.14;100.00;99943.40;105896;1257;73551;-79
2024/01/18 12:28:40;;;;;;;12.90;6.10;;;;;;;6.15;100.00;99940.75;105927;1256;62919;-78
2024/01/18 12:31:07;;;;;;;16.40;6.30;;;;;;;6.16;100.00;99933.94;106273;1253;73720;-80
2024/01/18 12:33:34;;;;;;;8.30;5.20;;;;;;;6.17;100.00;99932.16;106164;1254;61323;-79
2024/01/18 12:36:03;;;;;;;11.90;6.80;;;;;;;6.16;100.00;99926.44;106190;1254;60300;-79
2024/01/18 12:38:35;;;;;;;13.80;6.70;;;;;;;6.17;100.00;99920.69;106214;1250;72981;-78
2024/01/18 12:41:01;;;;;;;10.50;5.90;;;;;;;6.17;100.00;99913.59;106128;1253;63925;-79
2024/01/18 12:43:29;;;;;;;13.30;6.20;;;;;;;6.17;100.00;99916.15;106176;1253;72732;-78
2024/01/18 12:45:56;;;;;;;14.80;6.50;;;;;;;6.20;100.00;99916.05;106181;1254;60533;-77
2024/01/18 12:48:23;;;;;;;13.30;6.80;;;;;;;6.23;100.00;99915.17;105893;1251;61255;-78
2024/01/18 12:50:51;;;;;;;16.30;7.90;;;;;;;6.25;100.00;99917.34;106185;1251;71698;-78
2024/01/18 12:53:18;;;;;;;16.90;8.10;;;;;;;6.26;100.00;99918.30;106172;1253;63901;-78
2024/01/18 12:55:44;;;;;;;18.10;7.10;;;;;;;6.28;100.00;99910.42;106120;1254;71422;-77
2024/01/18 12:58:15;;;;;;;14.90;7.70;;;;;;;6.29;100.00;99910.88;105872;1256;62108;-77
2024/01/18 13:00:42;;;;;;;12.60;7.10;;;;;;;6.29;100.00;99911.56;106130;1253;60434;-79
2024/01/18 13:03:11;;;;;;;13.20;7.10;;;;;;;6.28;100.00;99905.90;106254;1252;73142;-77
2024/01/18 13:05:43;;;;;;;14.70;8.80;;;;;;;6.26;100.00;99909.98;106159;1252;63629;-80
2024/01/18 13:08:10;;;;;;;19.60;8.20;;;;;;;6.23;100.00;99904.89;106223;1253;72975;-81
2024/01/18 13:10:37;;;;;;;12.90;6.70;;;;;;;6.21;100.00;99904.16;106157;1253;62147;-78
2024/01/18 13:13:06;;;;;;;12.40;7.70;;;;;;;6.20;100.00;99896.77;106223;1252;60435;-77
2024/01/18 13:15:33;;;;;;;9.80;6.10;;;;;;;6.17;100.00;99894.67;106232;1253;73804;-76
2024/01/18 13:18:02;;;;;;;13.30;6.50;;;;;;;6.15;100.00;99890.09;106186;1254;64785;-79
2024/01/18 13:20:29;;;;;;;16.90;6.70;;;;;;;6.14;100.00;99892.23;106262;1254;72707;-77
2024/01/18 13:22:56;;;;;;;13.50;6.90;;;;;;;6.12;100.00;99889.89;106163;1251;60533;-78
2024/01/18 13:25:23;;;;;;;16.00;8.30;;;;;;;6.12;100.00;99886.98;106156;1254;61506;-80
2024/01/18 13:27:49;;;;;;;15.30;8.50;;;;;;;6.10;100.00;99878.90;106226;1251;73735;-77
2024/01/18 13:30:17;;;;;;;17.20;8.20;;;;;;;6.10;100.00;99874.57;106206;1252;61962;-80
2024/01/18 13:32:44;;;;;;;18.20;10.80;;;;;;;6.08;100.00;99880.71;107203;1254;73572;-75
2024/01/18 13:35:11;;;;;;;23.80;10.00;;;;;;;6.08;100.00;99877.27;106472;1263;60894;-79
2024/01/18 13:37:38;;;;;;;27.20;11.70;;;;;;;6.07;100.00;99871.92;106357;1252;61525;-79
2024/01/18 13:40:08;;;;;;;18.90;10.00;;;;;;;6.08;100.00;99863.73;106109;1254;72271;-78
2024/01/18 13:42:35;;;;;;;25.50;13.00;;;;;;;6.08;100.00;99872.91;106230;1253;66625;-78
2024/01/18 13:45:03;;;;;;;17.40;10.50;;;;;;;6.08;100.00;99869.12;106232;1254;72657;-79
2024/01/18 13:47:31;;;;;;;17.80;10.20;;;;;;;6.08;100.00;99859.24;106258;1253;61908;-78
2024/01/18 13:49:58;;;;;;;17.10;9.40;;;;;;;6.07;100.00;99857.71;106891;1250;61466;-76
2024/01/18 13:52:28;;;;;;;17.10;9.70;;;;;;;6.07;100.00;99850.29;106637;1254;72922;-80
2024/01/18 13:54:56;;;;;;;17.00;10.30;;;;;;;6.05;100.00;99854.52;106330;1258;62973;-76
2024/01/18 13:57:25;;;;;;;15.00;8.60;;;;;;;6.06;100.00;99852.95;106208;1254;73579;-79
2024/01/18 13:59:52;;;;;;;17.10;9.30;;;;;;;6.06;100.00;99850.45;106088;1254;61307;-79
2024/01/18 14:02:19;;;;;;;15.20;8.60;;;;;;;6.07;100.00;99847.63;106179;1250;60536;-79
2024/01/18 14:04:46;;;;;;;15.60;9.10;;;;;;;6.07;100.00;99850.60;106182;1251;75050;-80
2024/01/18 14:07:12;;;;;;;14.10;8.80;;;;;;;6.06;100.00;99850.80;106239;1254;65116;-78
2024/01/18 14:09:40;;;;;;;19.60;8.40;;;;;;;6.06;100.00;99855.33;107384;1251;72729;-78
2024/01/18 14:12:07;;;;;;;15.60;8.30;;;;;;;6.07;100.00;99847.34;107722;1251;60808;-78
2024/01/18 14:14:39;;;;;;;17.30;9.80;;;;;;;6.06;100.00;99846.29;107909;1250;60382;-76
2024/01/18 14:17:06;;;;;;;18.40;10.50;;;;;;;6.06;100.00;99842.67;108842;1251;71920;-77
2024/01/18 14:19:34;;;;;;;19.10;12.70;;;;;;;6.06;100.00;99839.90;107542;1253;62612;-78
2024/01/18 14:22:03;;;;;;;25.00;15.10;;;;;;;6.06;100.00;99835.92;106272;1254;71589;-79
2024/01/18 14:24:33;;;;;;;26.90;15.40;;;;;;;6.05;100.00;99829.20;105969;1257;61962;-79
2024/01/18 14:27:04;;;;;;;27.50;16.80;;;;;;;6.04;100.00;99827.00;106042;1255;61420;-79
2024/01/18 14:29:35;;;;;;;34.20;20.90;;;;;;;6.03;100.00;99829.14;106201;1254;74626;-79
2024/01/18 14:32:16;;;;;;;25.80;18.50;;;;;;;6.03;100.00;99826.02;105958;1254;63690;-79
2024/01/18 14:34:51;;;;;;;32.60;16.80;;;;;;;6.03;100.00;99821.17;105983;1256;72468;-77
2024/01/18 14:37:19;;;;;;;28.80;17.30;;;;;;;6.02;100.00;99818.60;106157;1253;60463;-77
2024/01/18 14:39:48;;;;;;;24.10;16.10;;;;;;;6.01;100.00;99816.89;106134;1254;61642;-79
2024/01/18 14:42:15;;;;;;;24.30;17.50;;;;;;;6.00;100.00;99810.70;106185;1249;73885;-79
2024/01/18 14:44:42;;;;;;;28.00;17.50;;;;;;;6.01;100.00;99803.58;106168;1254;64808;-80
2024/01/18 14:47:10;;;;;;;32.30;18.40;;;;;;;6.01;100.00;99811.56;106063;1254;71780;-79
2024/01/18 14:49:37;;;;;;;31.00;19.70;;;;;;;6.00;100.00;99806.54;106165;1252;60536;-80
2024/01/18 14:52:08;;;;;;;33.20;21.80;;;;;;;6.01;100.00;99802.34;106109;1251;60508;-78
2024/01/18 14:54:35;;;;;;;34.50;21.10;;;;;;;6.02;100.00;99803.86;106113;1254;74067;-77
2024/01/18 14:57:01;;;;;;;37.20;21.00;;;;;;;6.02;100.00;99800.04;106195;1253;63756;-78
2024/01/18 14:59:28;;;;;;;36.80;21.20;;;;;;;6.01;100.00;99801.84;106132;1251;73965;-80
2024/01/18 15:01:56;;;;;;;38.90;21.20;;;;;;;6.00;100.00;99798.58;106165;1251;60982;-79
2024/01/18 15:04:25;;;;;;;39.80;22.70;;;;;;;6.01;100.00;99799.75;106151;1249;60582;-79
2024/01/18 15:06:52;;;;;;;35.50;19.10;;;;;;;6.01;100.00;99797.98;106220;1256;73824;-80
2024/01/18 15:09:19;;;;;;;32.10;20.10;;;;;;;6.00;100.00;99787.45;106280;1254;62841;-79
2024/01/18 15:11:46;;;;;;;37.60;23.30;;;;;;;6.01;100.00;99788.27;106174;1254;72833;-80
2024/01/18 15:14:13;;;;;;;37.50;21.50;;;;;;;6.03;100.00;99783.37;106334;1250;60551;-79
2024/01/18 15:16:40;;;;;;;40.30;22.60;;;;;;;6.03;100.00;99789.42;106066;1257;60408;-80
2024/01/18 15:19:08;;;;;;;33.00;21.30;;;;;;;6.01;100.00;99778.04;106015;1254;72873;-78
2024/01/18 15:21:44;;;;;;;42.50;20.80;;;;;;;5.99;100.00;99771.70;106126;1251;62025;-80
2024/01/18 15:24:11;;;;;;;29.40;20.00;;;;;;;6.00;100.00;99764.02;106178;1251;71531;-79
2024/01/18 15:26:38;;;;;;;33.50;20.40;;;;;;;6.01;100.00;99765.90;106168;1254;61521;-82
2024/01/18 15:29:05;;;;;;;22.70;15.00;;;;;;;6.02;100.00;99764.98;106149;1260;60948;-77
2024/01/18 15:31:33;;;;;;;23.00;15.40;;;;;;;6.03;100.00;99763.72;106099;1253;73355;-79
2024/01/18 15:34:03;;;;;;;23.30;14.80;;;;;;;6.04;100.00;99756.91;106219;1251;62978;-77
2024/01/18 15:36:33;;;;;;;31.00;16.00;;;;;;;6.04;100.00;99761.56;106185;1251;71487;-79
2024/01/18 15:39:00;;;;;;;25.30;17.70;;;;;;;6.07;100.00;99759.01;106196;1253;60632;-77
2024/01/18 15:41:27;;;;;;;23.50;15.60;;;;;;;6.07;100.00;99763.65;106495;1253;60408;-78
2024/01/18 15:43:54;;;;;;;30.90;16.50;;;;;;;6.07;100.00;99757.27;106378;1253;73650;-78
2024/01/18 15:46:25;;;;;;;30.50;18.00;;;;;;;6.05;100.00;99753.38;106239;1251;64882;-77
2024/01/18 15:48:53;;;;;;;28.20;17.90;;;;;;;6.02;100.00;99750.42;106253;1253;73736;-78
2024/01/18 15:51:24;;;;;;;29.10;16.40;;;;;;;5.99;100.00;99740.48;106199;1254;60559;-79
2024/01/18 15:53:51;;;;;;;23.40;15.10;;;;;;;5.96;100.00;99739.45;106220;1251;60536;-79
2024/01/18 15:56:19;;;;;;;25.40;16.10;;;;;;;5.96;100.00;99747.98;106148;1255;74099;-79
2024/01/18 15:58:47;;;;;;;22.00;15.30;;;;;;;5.96;100.00;99746.58;106101;1253;65082;-78
2024/01/18 16:01:14;;;;;;;23.00;14.20;;;;;;;5.96;100.00;99736.84;106152;1251;73755;-79
2024/01/18 16:03:41;;;;;;;28.60;15.30;;;;;;;5.98;100.00;99740.73;106116;1251;60337;-80
2024/01/18 16:06:09;;;;;;;24.80;15.00;;;;;;;5.99;100.00;99734.75;106456;1251;60419;-80
2024/01/18 16:08:36;;;;;;;21.80;14.10;;;;;;;6.00;100.00;99729.84;105931;1249;74869;-77
2024/01/18 16:11:03;;;;;;;27.10;16.40;;;;;;;6.01;100.00;99723.37;106269;1251;63894;-79
2024/01/18 16:13:30;;;;;;;28.00;16.40;;;;;;;6.02;100.00;99722.11;106247;1254;72574;-79
2024/01/18 16:15:58;;;;;;;28.00;16.60;;;;;;;6.05;100.00;99725.11;106259;1251;60546;-79